Time;durP1;ratioP1;P1;durP2;ratioP2;P2;SDS_P1;SDS_P2;PMS_P1;PMS_P2;Temp;Humidity;BMP_temperature;BMP_pressure;BME280_temperature;BME280_humidity;BME280_pressure;Samples;Min_cycle;Max_cycle;Signal;HPM_P1;HPM_P2
2023/03/05 00:00:30;;;;;;;0.47;0.43;;;;;;;1.75;100.00;100682.94;4952828;28;20209;-74
2023/03/05 00:02:56;;;;;;;1.00;0.73;;;;;;;1.74;100.00;100675.91;4951304;29;20210;-74
2023/03/05 00:05:21;;;;;;;0.37;0.33;;;;;;;1.73;100.00;100669.69;4952545;28;20182;-78
2023/03/05 00:07:47;;;;;;;0.63;0.40;;;;;;;1.71;100.00;100665.63;4952381;28;20170;-74
2023/03/05 00:10:13;;;;;;;2.50;0.70;;;;;;;1.68;100.00;100669.63;4952470;28;20190;-69
2023/03/05 00:12:38;;;;;;;1.60;1.20;;;;;;;1.68;100.00;100668.81;4952410;28;20210;-73
2023/03/05 00:15:04;;;;;;;0.30;0.30;;;;;;;1.69;100.00;100667.75;4952490;28;20178;-71
2023/03/05 00:17:32;;;;;;;4.10;0.93;;;;;;;1.71;100.00;100662.91;4952296;28;20290;-72
2023/03/05 00:19:58;;;;;;;0.60;0.50;;;;;;;1.70;100.00;100655.91;4953353;28;20175;-72
2023/03/05 00:22:23;;;;;;;0.27;0.27;;;;;;;1.69;100.00;100657.78;4956122;28;20190;-72
2023/03/05 00:24:51;;;;;;;0.20;0.13;;;;;;;1.69;100.00;100657.78;4956114;28;20231;-72
2023/03/05 00:27:17;;;;;;;0.10;0.10;;;;;;;1.69;100.00;100656.97;4955942;28;20181;-74
2023/03/05 00:29:42;;;;;;;3.63;0.90;;;;;;;1.70;100.00;100651.34;4956020;28;20175;-72
2023/03/05 00:32:08;;;;;;;0.53;0.50;;;;;;;1.70;100.00;100647.81;4955859;28;20234;-72
2023/03/05 00:34:35;;;;;;;0.10;0.10;;;;;;;1.71;100.00;100646.75;4955958;28;20176;-73
2023/03/05 00:37:00;;;;;;;3.90;1.60;;;;;;;1.71;100.00;100650.28;4956025;28;20202;-71
2023/03/05 00:39:25;;;;;;;1.00;0.90;;;;;;;1.71;100.00;100655.66;4955926;28;20183;-72
2023/03/05 00:41:51;;;;;;;1.07;1.07;;;;;;;1.68;100.00;100645.38;4955846;28;20171;-72
2023/03/05 00:44:17;;;;;;;0.10;0.10;;;;;;;1.67;100.00;100649.16;4955747;28;20179;-73
2023/03/05 00:46:42;;;;;;;0.57;0.57;;;;;;;1.64;100.00;100636.19;4955646;28;20639;-73
2023/03/05 00:49:07;;;;;;;0.03;0.03;;;;;;;1.64;100.00;100633.50;4955961;28;20536;-72
2023/03/05 00:51:33;;;;;;;8.97;2.10;;;;;;;1.64;100.00;100630.78;4955705;28;20210;-72
2023/03/05 00:53:58;;;;;;;0.13;0.13;;;;;;;1.65;100.00;100620.84;4955700;28;20179;-73
2023/03/05 00:56:24;;;;;;;3.83;2.47;;;;;;;1.66;100.00;100625.97;4955251;28;20292;-71
2023/03/05 00:58:49;;;;;;;1.60;0.67;;;;;;;1.68;100.00;100623.84;4954282;29;20189;-72
2023/03/05 01:01:15;;;;;;;5.00;0.93;;;;;;;1.68;100.00;100613.06;4955663;28;20241;-71
2023/03/05 01:03:40;;;;;;;2.07;0.83;;;;;;;1.67;100.00;100616.00;4955414;28;20189;-77
2023/03/05 01:06:08;;;;;;;1.27;0.93;;;;;;;1.67;100.00;100607.94;4955325;28;20190;-76
2023/03/05 01:08:34;;;;;;;38.70;1.70;;;;;;;1.67;100.00;100606.06;4955064;28;20186;-78
2023/03/05 01:10:59;;;;;;;4.07;0.13;;;;;;;1.67;100.00;100607.94;4955141;28;20195;-73
2023/03/05 01:13:25;;;;;;;0.77;0.33;;;;;;;1.65;100.00;100600.09;4955219;28;20186;-71
2023/03/05 01:15:50;;;;;;;2.10;1.90;;;;;;;1.67;100.00;100597.16;4955039;28;20666;-77
2023/03/05 01:18:17;;;;;;;0.43;0.43;;;;;;;1.67;100.00;100592.59;4953730;28;20187;-78
2023/03/05 01:20:42;;;;;;;15.97;1.60;;;;;;;1.66;100.00;100579.38;4954979;28;20237;-78
2023/03/05 01:23:08;;;;;;;1.00;0.73;;;;;;;1.62;100.00;100580.94;4953645;28;20182;-77
2023/03/05 01:25:33;;;;;;;1.90;0.70;;;;;;;1.57;100.00;100576.28;4954695;28;20261;-79
2023/03/05 01:27:58;;;;;;;6.13;1.90;;;;;;;1.54;100.00;100573.28;4954759;28;20175;-79
2023/03/05 01:30:24;;;;;;;6.60;1.23;;;;;;;1.53;100.00;100577.03;4954947;28;20206;-78
2023/03/05 01:32:49;;;;;;;1.30;1.20;;;;;;;1.51;100.00;100563.84;4953666;28;20217;-76
2023/03/05 01:35:17;;;;;;;2.70;0.70;;;;;;;1.50;100.00;100567.59;4954449;28;20178;-78
2023/03/05 01:37:43;;;;;;;8.13;2.33;;;;;;;1.51;100.00;100558.44;4954895;28;20183;-77
2023/03/05 01:40:10;;;;;;;0.80;0.67;;;;;;;1.51;100.00;100547.69;4954562;28;20189;-75
2023/03/05 01:42:36;;;;;;;1.50;1.10;;;;;;;1.52;100.00;100546.63;4955035;28;20233;-73
2023/03/05 01:45:09;;;;;;;13.43;2.27;;;;;;;1.55;100.00;100543.41;4954635;28;20197;-76
2023/03/05 01:47:35;;;;;;;0.97;0.93;;;;;;;1.57;100.00;100538.59;4953099;28;20175;-76
2023/03/05 01:50:01;;;;;;;3.67;1.90;;;;;;;1.60;100.00;100531.94;4954563;28;20658;-75
2023/03/05 01:52:32;;;;;;;4.53;1.80;;;;;;;1.62;100.00;100533.28;4954372;28;20249;-79
2023/03/05 01:55:00;;;;;;;1.90;1.43;;;;;;;1.65;100.00;100534.66;4954638;28;20634;-74
2023/03/05 01:57:33;;;;;;;7.00;1.60;;;;;;;1.65;100.00;100535.47;4954289;28;20178;-77
2023/03/05 02:00:02;;;;;;;7.60;1.90;;;;;;;1.68;100.00;100537.66;4954384;28;20182;-77
2023/03/05 02:02:28;;;;;;;7.70;1.93;;;;;;;1.69;100.00;100533.09;4954286;28;20183;-76
2023/03/05 02:04:59;;;;;;;6.70;1.80;;;;;;;1.67;100.00;100522.59;4954330;28;20265;-78
2023/03/05 02:07:25;;;;;;;5.20;1.70;;;;;;;1.67;100.00;100519.06;4954079;28;20182;-77
2023/03/05 02:09:50;;;;;;;1.40;1.23;;;;;;;1.65;100.00;100513.94;4954149;28;20186;-75
2023/03/05 02:12:16;;;;;;;2.10;1.33;;;;;;;1.65;100.00;100518.50;4954046;28;20225;-76
2023/03/05 02:14:45;;;;;;;1.77;1.50;;;;;;;1.64;100.00;100509.63;4953917;28;20548;-79
2023/03/05 02:17:11;;;;;;;1.60;1.50;;;;;;;1.64;100.00;100512.31;4953912;28;20183;-79
2023/03/05 02:19:47;;;;;;;5.03;1.83;;;;;;;1.65;100.00;100516.63;4953978;28;20513;-79
2023/03/05 02:22:17;;;;;;;1.20;1.13;;;;;;;1.66;100.00;100515.56;4953908;28;20241;-76
2023/03/05 02:24:42;;;;;;;1.53;0.80;;;;;;;1.68;100.00;100510.75;4953779;28;20182;-76
2023/03/05 02:27:08;;;;;;;2.17;2.03;;;;;;;1.68;100.00;100507.25;4953663;28;20174;-77
2023/03/05 02:29:37;;;;;;;3.20;1.50;;;;;;;1.70;100.00;100499.72;4953840;28;20229;-76
2023/03/05 02:32:02;;;;;;;14.70;1.37;;;;;;;1.70;100.00;100511.31;4952402;28;20214;-71
2023/03/05 02:34:28;;;;;;;0.70;0.70;;;;;;;1.72;100.00;100502.97;4953429;28;20174;-77
2023/03/05 02:36:54;;;;;;;2.83;1.10;;;;;;;1.72;100.00;100500.28;4953542;28;20205;-73
2023/03/05 02:39:19;;;;;;;1.83;0.73;;;;;;;1.73;100.00;100500.03;4953866;28;20175;-73
2023/03/05 02:41:45;;;;;;;6.40;1.53;;;;;;;1.75;100.00;100497.91;4953682;28;20175;-77
2023/03/05 02:44:10;;;;;;;10.60;1.07;;;;;;;1.76;100.00;100491.47;4953195;28;20186;-76
2023/03/05 02:46:35;;;;;;;10.73;2.03;;;;;;;1.77;100.00;100493.09;4953299;28;20237;-75
2023/03/05 02:49:01;;;;;;;2.17;1.47;;;;;;;1.78;100.00;100489.31;4953280;28;20171;-75
2023/03/05 02:51:26;;;;;;;1.40;1.30;;;;;;;1.77;100.00;100482.31;4953301;28;20306;-76
2023/03/05 02:53:52;;;;;;;0.70;0.63;;;;;;;1.75;100.00;100476.38;4953227;28;20183;-71
2023/03/05 02:56:17;;;;;;;2.83;0.60;;;;;;;1.77;100.00;100482.31;4953399;28;20198;-75
2023/03/05 02:58:42;;;;;;;6.70;0.93;;;;;;;1.81;100.00;100487.19;4953257;28;20664;-72
2023/03/05 03:01:09;;;;;;;2.03;1.53;;;;;;;1.79;100.00;100477.47;4952052;29;20657;-72
2023/03/05 03:03:34;;;;;;;6.73;2.90;;;;;;;1.74;100.00;100469.34;4953103;28;20190;-77
2023/03/05 03:06:00;;;;;;;0.47;0.47;;;;;;;1.71;100.00;100463.63;4953341;28;20175;-74
2023/03/05 03:08:26;;;;;;;5.57;2.30;;;;;;;1.72;100.00;100473.34;4953215;28;20178;-72
2023/03/05 03:10:51;;;;;;;2.50;1.53;;;;;;;1.73;100.00;100462.31;4952956;28;20225;-74
2023/03/05 03:13:17;;;;;;;1.17;1.07;;;;;;;1.73;100.00;100462.31;4953133;28;20222;-74
2023/03/05 03:15:42;;;;;;;2.13;1.30;;;;;;;1.74;100.00;100455.09;4953096;28;20279;-76
2023/03/05 03:18:08;;;;;;;0.57;0.57;;;;;;;1.74;100.00;100461.28;4952759;28;20769;-75
2023/03/05 03:20:37;;;;;;;5.37;1.30;;;;;;;1.74;100.00;100450.50;4953064;28;20662;-74
2023/03/05 03:23:03;;;;;;;3.97;1.60;;;;;;;1.75;100.00;100445.94;4951752;29;20178;-74
2023/03/05 03:25:29;;;;;;;0.57;0.57;;;;;;;1.78;100.00;100440.03;4952802;28;20202;-72
2023/03/05 03:27:54;;;;;;;1.00;1.00;;;;;;;1.78;100.00;100442.72;4951466;29;20190;-76
2023/03/05 03:30:19;;;;;;;1.97;1.47;;;;;;;1.77;100.00;100439.22;4951439;28;20228;-76
2023/03/05 03:32:45;;;;;;;1.60;1.50;;;;;;;1.75;100.00;100446.75;4952705;28;20233;-77
2023/03/05 03:35:11;;;;;;;1.30;1.20;;;;;;;1.71;100.00;100447.47;4953051;28;20181;-76
2023/03/05 03:37:37;;;;;;;4.23;0.77;;;;;;;1.66;100.00;100440.16;4952814;28;20178;-75
2023/03/05 03:40:04;;;;;;;8.50;1.53;;;;;;;1.58;100.00;100431.72;4952731;28;20190;-75
2023/03/05 03:42:30;;;;;;;1.80;1.00;;;;;;;1.52;100.00;100433.53;4952708;28;20193;-74
2023/03/05 03:44:55;;;;;;;1.33;1.23;;;;;;;1.52;100.00;100425.47;4952492;28;20179;-80
2023/03/05 03:47:20;;;;;;;7.13;0.53;;;;;;;1.49;100.00;100417.91;4952581;28;20538;-74
2023/03/05 03:49:46;;;;;;;1.07;0.97;;;;;;;1.49;100.00;100420.59;4967889;28;20209;-73
2023/03/05 03:52:11;;;;;;;15.40;1.23;;;;;;;1.46;100.00;100415.72;4971859;28;20205;-75
2023/03/05 03:54:36;;;;;;;6.47;2.37;;;;;;;1.40;100.00;100411.31;4972030;28;20535;-72
2023/03/05 03:57:02;;;;;;;0.83;0.83;;;;;;;1.38;100.00;100408.88;4975935;28;20577;-78
2023/03/05 03:59:28;;;;;;;10.80;1.87;;;;;;;1.38;100.00;100414.28;4975651;28;20593;-75
2023/03/05 04:01:53;;;;;;;3.50;1.33;;;;;;;1.37;100.00;100404.56;4975764;28;20252;-72
2023/03/05 04:04:18;;;;;;;1.03;0.93;;;;;;;1.34;100.00;100398.88;4975617;28;20260;-73
2023/03/05 04:06:44;;;;;;;4.03;2.30;;;;;;;1.35;100.00;100389.75;4975607;28;20185;-74
2023/03/05 04:09:09;;;;;;;0.50;0.50;;;;;;;1.39;100.00;100394.38;4975646;28;20300;-74
2023/03/05 04:11:36;;;;;;;14.33;1.93;;;;;;;1.43;100.00;100386.59;4975639;28;20642;-78
2023/03/05 04:14:01;;;;;;;0.07;0.03;;;;;;;1.50;100.00;100392.59;4975693;28;20178;-76
2023/03/05 04:16:27;;;;;;;1.00;0.67;;;;;;;1.53;100.00;100384.03;4975646;28;20265;-73
2023/03/05 04:18:52;;;;;;;4.33;1.00;;;;;;;1.56;100.00;100383.50;4975599;28;20188;-78
2023/03/05 04:21:18;;;;;;;0.40;0.40;;;;;;;1.60;100.00;100381.97;4975362;28;20182;-73
2023/03/05 04:23:44;;;;;;;6.37;1.37;;;;;;;1.61;100.00;100385.47;4975403;28;20205;-77
2023/03/05 04:26:09;;;;;;;11.33;1.43;;;;;;;1.62;100.00;100377.13;4975634;28;20224;-75
2023/03/05 04:28:35;;;;;;;0.47;0.47;;;;;;;1.63;100.00;100386.84;4975220;28;20174;-73
2023/03/05 04:31:00;;;;;;;7.63;0.77;;;;;;;1.68;100.00;100376.09;4975205;28;20252;-75
2023/03/05 04:33:26;;;;;;;3.50;1.30;;;;;;;1.68;100.00;100372.59;4975240;28;20178;-75
2023/03/05 04:35:51;;;;;;;0.50;0.50;;;;;;;1.67;100.00;100371.78;4975214;28;20182;-78
2023/03/05 04:38:17;;;;;;;0.50;0.30;;;;;;;1.69;100.00;100374.22;4975336;28;20684;-75
2023/03/05 04:40:44;;;;;;;0.47;0.47;;;;;;;1.65;100.00;100371.22;4975098;28;20178;-77
2023/03/05 04:43:10;;;;;;;1.67;1.57;;;;;;;1.68;100.00;100368.03;4974759;28;20193;-74
2023/03/05 04:45:38;;;;;;;0.70;0.70;;;;;;;1.68;100.00;100369.91;4973749;28;20181;-77
2023/03/05 04:48:03;;;;;;;1.30;1.20;;;;;;;1.69;100.00;100361.56;4974899;28;20677;-79
2023/03/05 04:50:29;;;;;;;1.13;0.83;;;;;;;1.68;100.00;100364.50;4974824;28;20178;-74
2023/03/05 04:52:55;;;;;;;0.43;0.30;;;;;;;1.68;100.00;100365.31;4974871;28;20209;-74
2023/03/05 04:55:20;;;;;;;0.97;0.80;;;;;;;1.68;100.00;100354.56;4974858;28;20174;-76
2023/03/05 04:57:45;;;;;;;20.67;0.87;;;;;;;1.68;100.00;100368.03;4974487;28;20178;-73
2023/03/05 05:00:13;;;;;;;4.30;1.53;;;;;;;1.68;100.00;100361.81;4974838;28;20182;-71
2023/03/05 05:02:44;;;;;;;0.40;0.40;;;;;;;1.69;100.00;100360.75;4974716;28;20182;-74
2023/03/05 05:05:12;;;;;;;6.93;0.33;;;;;;;1.68;100.00;100365.31;4974687;28;20177;-74
2023/03/05 05:07:37;;;;;;;1.40;0.93;;;;;;;1.70;100.00;100359.69;4974723;28;20551;-76
2023/03/05 05:10:03;;;;;;;1.33;1.20;;;;;;;1.67;100.00;100352.94;4974492;28;20182;-74
2023/03/05 05:12:29;;;;;;;0.57;0.57;;;;;;;1.65;100.00;100355.06;4974412;28;20202;-74
2023/03/05 05:14:56;;;;;;;4.67;0.53;;;;;;;1.64;100.00;100358.84;4974437;28;20575;-78
2023/03/05 05:17:21;;;;;;;0.90;0.83;;;;;;;1.63;100.00;100353.72;4974465;28;20182;-78
2023/03/05 05:19:47;;;;;;;1.57;1.47;;;;;;;1.63;100.00;100345.63;4974399;28;20221;-74
2023/03/05 05:22:13;;;;;;;0.97;0.97;;;;;;;1.61;100.00;100337.81;4974451;28;20523;-78
2023/03/05 05:24:38;;;;;;;7.53;0.57;;;;;;;1.62;100.00;100342.13;4974328;28;20218;-78
2023/03/05 05:27:03;;;;;;;3.40;1.13;;;;;;;1.62;100.00;100344.81;4974029;28;20578;-77
2023/03/05 05:29:29;;;;;;;0.20;0.20;;;;;;;1.62;100.00;100344.81;4974220;28;20178;-75
2023/03/05 05:31:55;;;;;;;1.00;0.90;;;;;;;1.63;100.00;100351.00;4974173;28;20190;-77
2023/03/05 05:34:20;;;;;;;0.67;0.67;;;;;;;1.63;100.00;100337.56;4974398;28;20181;-75
2023/03/05 05:36:46;;;;;;;3.90;1.20;;;;;;;1.62;100.00;100335.94;4973982;28;20564;-74
2023/03/05 05:39:11;;;;;;;3.17;1.63;;;;;;;1.61;100.00;100334.31;4974070;28;20301;-74
2023/03/05 05:41:36;;;;;;;0.30;0.30;;;;;;;1.62;100.00;100341.31;4974025;28;20208;-79
2023/03/05 05:44:01;;;;;;;3.50;0.97;;;;;;;1.62;100.00;100335.94;4973871;28;20174;-78
2023/03/05 05:46:27;;;;;;;6.77;0.93;;;;;;;1.61;100.00;100339.69;4973881;28;20285;-77
2023/03/05 05:48:53;;;;;;;1.20;0.90;;;;;;;1.61;100.00;100343.19;4973950;28;20274;-74
2023/03/05 05:51:21;;;;;;;0.37;0.37;;;;;;;1.61;100.00;100340.50;4972481;28;20728;-73
2023/03/05 05:53:48;;;;;;;0.87;0.73;;;;;;;1.60;100.00;100330.81;4973768;28;20224;-75
2023/03/05 05:56:15;;;;;;;0.20;0.20;;;;;;;1.58;100.00;100332.91;4973523;28;20249;-76
2023/03/05 05:58:42;;;;;;;0.30;0.30;;;;;;;1.58;100.00;100338.28;4973834;28;20637;-76
2023/03/05 06:01:16;;;;;;;0.43;0.43;;;;;;;1.58;100.00;100332.91;4973675;28;20174;-75
2023/03/05 06:03:42;;;;;;;1.70;0.43;;;;;;;1.61;100.00;100328.91;4973579;28;20169;-74
2023/03/05 06:06:10;;;;;;;1.40;0.83;;;;;;;1.60;100.00;100330.81;4973465;28;20180;-74
2023/03/05 06:08:35;;;;;;;1.03;0.57;;;;;;;1.61;100.00;100329.72;4973295;28;20173;-76
2023/03/05 06:11:01;;;;;;;4.73;0.60;;;;;;;1.60;100.00;100328.09;4973522;28;20704;-76
2023/03/05 06:13:26;;;;;;;1.90;1.07;;;;;;;1.59;100.00;100323.78;4973852;28;20178;-76
2023/03/05 06:15:59;;;;;;;1.23;1.10;;;;;;;1.61;100.00;100321.66;4973455;28;20233;-77
2023/03/05 06:18:25;;;;;;;0.47;0.47;;;;;;;1.61;100.00;100318.97;4973079;28;20409;-78
2023/03/05 06:20:55;;;;;;;1.33;1.20;;;;;;;1.60;100.00;100322.72;4973488;28;20178;-75
2023/03/05 06:23:21;;;;;;;0.77;0.40;;;;;;;1.61;100.00;100321.66;4972152;28;20189;-71
2023/03/05 06:25:46;;;;;;;0.70;0.70;;;;;;;1.60;100.00;100316.53;4973993;28;20174;-72
2023/03/05 06:28:12;;;;;;;0.77;0.77;;;;;;;1.60;100.00;100316.53;4975775;28;20185;-72
2023/03/05 06:30:37;;;;;;;1.50;1.40;;;;;;;1.62;100.00;100307.13;4975296;28;20185;-71
2023/03/05 06:33:02;;;;;;;0.80;0.60;;;;;;;1.64;100.00;100313.06;4973974;28;20539;-72
2023/03/05 06:35:28;;;;;;;0.23;0.23;;;;;;;1.67;100.00;100317.13;4973286;28;20174;-72
2023/03/05 06:37:53;;;;;;;0.23;0.23;;;;;;;1.64;100.00;100314.94;4973183;28;20189;-71
2023/03/05 06:40:19;;;;;;;1.13;0.93;;;;;;;1.65;100.00;100322.75;4973127;28;20649;-74
2023/03/05 06:42:44;;;;;;;1.33;0.87;;;;;;;1.67;100.00;100320.63;4972835;28;20597;-71
2023/03/05 06:45:10;;;;;;;0.97;0.87;;;;;;;1.68;100.00;100321.44;4972676;28;20186;-71
2023/03/05 06:47:35;;;;;;;7.53;1.93;;;;;;;1.64;100.00;100314.94;4972703;28;20173;-72
2023/03/05 06:50:01;;;;;;;1.47;1.20;;;;;;;1.62;100.00;100322.47;4972802;28;20676;-72
2023/03/05 06:52:26;;;;;;;4.87;2.13;;;;;;;1.59;100.00;100326.50;4972527;28;20202;-74
2023/03/05 06:54:54;;;;;;;1.33;0.93;;;;;;;1.61;100.00;100320.84;4972728;28;20181;-75
2023/03/05 06:57:20;;;;;;;6.97;1.30;;;;;;;1.61;100.00;100321.66;4972539;28;20178;-73
2023/03/05 06:59:46;;;;;;;3.53;1.77;;;;;;;1.63;100.00;100324.91;4972615;28;20233;-74
2023/03/05 07:02:12;;;;;;;1.27;1.27;;;;;;;1.68;100.00;100318.75;4971379;28;20166;-72
2023/03/05 07:04:38;;;;;;;1.40;1.10;;;;;;;1.71;100.00;100316.34;4953059;28;20857;-71
2023/03/05 07:07:03;;;;;;;0.60;0.60;;;;;;;1.73;100.00;100316.88;4952935;28;20217;-70
2023/03/05 07:09:29;;;;;;;2.30;1.43;;;;;;;1.74;100.00;100315.84;4952859;28;20210;-72
2023/03/05 07:11:55;;;;;;;1.90;0.83;;;;;;;1.74;100.00;100317.72;4952810;28;20202;-76
2023/03/05 07:14:20;;;;;;;5.33;2.27;;;;;;;1.75;100.00;100314.78;4953124;28;20201;-75
2023/03/05 07:16:45;;;;;;;5.90;1.50;;;;;;;1.75;100.00;100317.47;4952808;28;20266;-75
2023/03/05 07:19:11;;;;;;;3.33;2.33;;;;;;;1.75;100.00;100314.78;4952881;28;20241;-74
2023/03/05 07:21:36;;;;;;;0.80;0.80;;;;;;;1.77;100.00;100307.25;4952783;28;20237;-73
2023/03/05 07:24:03;;;;;;;8.23;2.73;;;;;;;1.78;100.00;100300.78;4952917;28;20181;-73
2023/03/05 07:26:30;;;;;;;3.30;3.00;;;;;;;1.79;100.00;100301.59;4952682;28;20230;-72
2023/03/05 07:28:55;;;;;;;4.60;3.23;;;;;;;1.82;100.00;100297.59;4952410;28;20186;-78
2023/03/05 07:31:25;;;;;;;3.03;2.73;;;;;;;1.83;100.00;100300.03;4952294;28;20197;-74
2023/03/05 07:33:52;;;;;;;12.97;3.20;;;;;;;1.84;100.00;100298.94;4952740;28;20230;-72
2023/03/05 07:36:18;;;;;;;1.80;1.67;;;;;;;1.87;100.00;100294.91;4952508;28;20179;-71
2023/03/05 07:38:44;;;;;;;1.97;1.80;;;;;;;1.90;100.00;100300.63;4952944;28;20183;-71
2023/03/05 07:41:12;;;;;;;4.33;3.93;;;;;;;1.96;100.00;100298.78;4952826;28;20545;-73
2023/03/05 07:43:38;;;;;;;1.93;1.10;;;;;;;1.97;100.00;100297.69;4952675;28;20174;-76
2023/03/05 07:46:06;;;;;;;14.43;3.73;;;;;;;1.99;100.00;100299.06;4952944;28;20286;-79
2023/03/05 07:48:31;;;;;;;1.13;1.03;;;;;;;1.99;100.00;100290.97;4952521;28;20262;-79
2023/03/05 07:51:05;;;;;;;1.67;1.33;;;;;;;2.03;100.00;100288.59;4952576;28;20254;-79
2023/03/05 07:53:31;;;;;;;2.30;1.43;;;;;;;2.06;100.00;100296.16;4952632;28;20516;-70
2023/03/05 07:55:56;;;;;;;1.27;1.13;;;;;;;2.12;100.00;100288.91;4952687;28;20230;-79
2023/03/05 07:58:22;;;;;;;0.70;0.70;;;;;;;2.13;100.00;100294.03;4952278;28;20179;-79
2023/03/05 08:00:48;;;;;;;2.57;0.63;;;;;;;2.15;100.00;100294.59;4952530;28;20252;-75
2023/03/05 08:03:13;;;;;;;0.67;0.57;;;;;;;2.11;100.00;100290.81;4950902;28;20613;-74
2023/03/05 08:05:40;;;;;;;0.73;0.73;;;;;;;2.14;100.00;100294.84;4952221;28;20279;-71
2023/03/05 08:08:06;;;;;;;0.40;0.33;;;;;;;2.18;100.00;100287.91;4952493;28;20185;-72
2023/03/05 08:10:32;;;;;;;5.60;0.67;;;;;;;2.16;100.00;100284.63;4952357;28;20564;-71
2023/03/05 08:12:58;;;;;;;0.87;0.87;;;;;;;2.17;100.00;100297.03;4952319;28;20202;-71
2023/03/05 08:15:23;;;;;;;1.20;0.80;;;;;;;2.19;100.00;100294.91;4952310;28;20180;-73
2023/03/05 08:17:48;;;;;;;0.50;0.50;;;;;;;2.22;100.00;100284.41;4950687;28;20615;-72
2023/03/05 08:20:14;;;;;;;0.87;0.87;;;;;;;2.26;100.00;100280.13;4952193;28;20186;-77
2023/03/05 08:22:39;;;;;;;0.77;0.60;;;;;;;2.35;100.00;100288.53;4952382;28;20575;-77
2023/03/05 08:25:06;;;;;;;0.63;0.63;;;;;;;2.38;100.00;100294.22;4952181;28;20645;-71
2023/03/05 08:27:31;;;;;;;3.43;0.90;;;;;;;2.39;100.00;100274.25;4952205;28;20174;-70
2023/03/05 08:29:56;;;;;;;1.87;0.97;;;;;;;2.36;100.00;100292.84;4952459;28;20187;-72
2023/03/05 08:32:22;;;;;;;0.40;0.30;;;;;;;2.37;100.00;100278.31;4950327;29;20202;-74
2023/03/05 08:34:47;;;;;;;0.93;0.93;;;;;;;2.37;100.00;100281.81;4951675;28;20175;-73
2023/03/05 08:37:12;;;;;;;1.23;0.67;;;;;;;2.38;100.00;100275.34;4951882;28;20179;-71
2023/03/05 08:39:37;;;;;;;1.57;0.40;;;;;;;2.34;100.00;100282.34;4951809;28;20175;-71
2023/03/05 08:42:03;;;;;;;1.10;0.83;;;;;;;2.38;100.00;100282.63;4954198;28;20701;-71
2023/03/05 08:44:29;;;;;;;1.73;1.07;;;;;;;2.43;100.00;100293.41;4955227;28;20186;-72
2023/03/05 08:46:54;;;;;;;0.20;0.20;;;;;;;2.49;100.00;100289.69;4955048;28;20205;-74
2023/03/05 08:49:20;;;;;;;0.20;0.20;;;;;;;2.53;100.00;100290.78;4955249;28;20174;-74
2023/03/05 08:51:45;;;;;;;1.20;0.80;;;;;;;2.59;100.00;100286.22;4955141;28;20677;-76
2023/03/05 08:54:10;;;;;;;0.10;0.10;;;;;;;2.58;100.00;100273.81;4955447;28;20266;-74
2023/03/05 08:56:36;;;;;;;2.07;1.07;;;;;;;2.56;100.00;100284.88;4954983;28;20187;-72
2023/03/05 08:59:02;;;;;;;1.83;0.67;;;;;;;2.49;100.00;100278.09;4955046;28;20178;-72
2023/03/05 09:01:29;;;;;;;0.30;0.30;;;;;;;2.45;100.00;100283.19;4954707;28;20664;-72
2023/03/05 09:03:55;;;;;;;0.83;0.70;;;;;;;2.47;100.00;100281.06;4954926;28;20691;-76
2023/03/05 09:06:20;;;;;;;0.63;0.63;;;;;;;2.47;100.00;100280.25;4954640;28;20171;-72
2023/03/05 09:08:45;;;;;;;0.73;0.57;;;;;;;2.53;100.00;100279.19;4954678;28;20653;-71
2023/03/05 09:11:12;;;;;;;0.47;0.43;;;;;;;2.59;100.00;100261.94;4954248;28;20634;-76
2023/03/05 09:13:37;;;;;;;0.90;0.87;;;;;;;2.62;100.00;100273.03;4954731;28;20187;-72
2023/03/05 09:16:05;;;;;;;1.47;1.13;;;;;;;2.64;100.00;100270.88;4954470;28;20198;-76
2023/03/05 09:18:31;;;;;;;0.10;0.10;;;;;;;2.71;100.00;100269.81;4954682;28;20187;-73
2023/03/05 09:20:56;;;;;;;0.67;0.30;;;;;;;2.78;100.00;100267.72;4973974;28;20701;-72
2023/03/05 09:23:22;;;;;;;0.67;0.67;;;;;;;2.71;100.00;100264.44;4973992;28;20178;-76
2023/03/05 09:25:48;;;;;;;0.30;0.30;;;;;;;2.76;100.00;100262.59;4973854;28;20201;-74
2023/03/05 09:28:14;;;;;;;2.57;0.13;;;;;;;2.78;100.00;100254.22;4973957;28;20281;-74
2023/03/05 09:30:39;;;;;;;0.77;0.57;;;;;;;2.74;100.00;100258.50;4973656;28;20184;-77
2023/03/05 09:33:04;;;;;;;1.80;0.73;;;;;;;2.77;100.00;100256.13;4973752;28;20260;-74
2023/03/05 09:35:33;;;;;;;0.40;0.37;;;;;;;2.78;100.00;100254.22;4973629;28;20189;-74
2023/03/05 09:37:58;;;;;;;0.50;0.50;;;;;;;2.77;100.00;100263.41;4973489;28;20174;-71
2023/03/05 09:40:24;;;;;;;0.87;0.67;;;;;;;2.77;100.00;100263.41;4973749;28;20205;-75
2023/03/05 09:43:16;;;;;;;1.90;0.70;;;;;;;2.83;100.00;100265.03;4973773;28;20675;-71
2023/03/05 09:46:22;;;;;;;0.43;0.40;;;;;;;2.80;100.00;100266.38;4973912;28;20178;-72
2023/03/05 09:48:53;;;;;;;0.63;0.40;;;;;;;2.68;100.00;100281.97;4958662;28;20247;-71
2023/03/05 09:51:30;;;;;;;2.43;0.40;;;;;;;2.33;100.00;100269.94;4973709;28;20688;-72
2023/03/05 09:54:21;;;;;;;0.10;0.10;;;;;;;2.20;100.00;100266.88;4971267;28;20216;-75
2023/03/05 09:56:55;;;;;;;0.00;0.00;;;;;;;2.17;100.00;100264.69;4965846;28;20186;-72
2023/03/05 09:59:30;;;;;;;17.50;0.60;;;;;;;2.19;100.00;100271.47;4973701;28;20232;-71
2023/03/05 10:02:00;;;;;;;0.13;0.13;;;;;;;2.32;100.00;100270.19;4973614;28;20174;-74
2023/03/05 10:04:45;;;;;;;0.00;0.00;;;;;;;2.45;100.00;100258.09;4973728;28;20695;-71
2023/03/05 10:07:18;;;;;;;0.10;0.10;;;;;;;2.65;100.00;100252.81;4973573;28;20173;-71
2023/03/05 10:09:49;;;;;;;0.00;0.00;;;;;;;2.79;100.00;100245.88;4973544;28;20190;-70
2023/03/05 10:12:33;;;;;;;1.30;0.63;;;;;;;2.91;100.00;100243.75;4973231;28;20210;-70
2023/03/05 10:15:01;;;;;;;5.70;1.17;;;;;;;2.96;100.00;100251.84;4972893;28;20634;-74
2023/03/05 10:17:45;;;;;;;0.40;0.40;;;;;;;2.94;100.00;100248.59;4973214;28;20181;-71
2023/03/05 10:20:41;;;;;;;1.90;0.70;;;;;;;2.94;100.00;100242.41;4973454;28;20170;-73
2023/03/05 10:23:06;;;;;;;1.10;0.70;;;;;;;2.91;100.00;100245.63;4973378;28;20189;-72
2023/03/05 10:25:56;;;;;;;1.03;0.43;;;;;;;2.77;100.00;100242.63;4973347;28;20174;-71
2023/03/05 10:28:39;;;;;;;0.00;0.00;;;;;;;2.77;100.00;100253.41;4973220;28;20178;-70
2023/03/05 10:31:07;;;;;;;0.70;0.70;;;;;;;2.88;100.00;100246.94;4972969;28;20174;-71
2023/03/05 10:33:56;;;;;;;0.10;0.10;;;;;;;2.99;100.00;100245.09;4972972;28;20174;-76
2023/03/05 10:36:35;;;;;;;7.33;0.87;;;;;;;2.92;100.00;100239.97;4972937;28;20170;-70
2023/03/05 10:39:19;;;;;;;4.80;1.00;;;;;;;2.83;100.00;100236.16;4972974;28;20269;-69
2023/03/05 10:42:01;;;;;;;0.83;0.83;;;;;;;2.94;100.00;100232.41;4972928;28;20605;-70
2023/03/05 10:44:36;;;;;;;0.20;0.20;;;;;;;3.22;100.00;100233.81;4972854;28;20182;-76
2023/03/05 10:47:02;;;;;;;1.17;0.63;;;;;;;3.36;100.00;100230.59;4972890;28;20174;-73
2023/03/05 10:49:31;;;;;;;0.40;0.40;;;;;;;3.54;100.00;100221.97;4972711;28;20236;-76
2023/03/05 10:51:59;;;;;;;0.50;0.50;;;;;;;3.64;100.00;100221.97;4972540;28;20301;-74
2023/03/05 10:54:29;;;;;;;0.47;0.47;;;;;;;3.82;100.00;100215.19;4972584;28;20256;-72
2023/03/05 10:57:03;;;;;;;0.60;0.60;;;;;;;3.83;100.00;100208.72;4972565;28;20176;-78
2023/03/05 10:59:29;;;;;;;0.83;0.60;;;;;;;3.88;98.78;100204.09;4972691;28;20174;-78
2023/03/05 11:02:04;;;;;;;1.83;0.90;;;;;;;3.88;96.90;100190.59;4972564;28;20224;-77
2023/03/05 11:04:34;;;;;;;0.67;0.67;;;;;;;3.97;96.02;100185.44;4972316;28;20261;-82
2023/03/05 11:07:05;;;;;;;11.53;0.93;;;;;;;3.85;93.57;100193.03;4972403;28;20169;-73
2023/03/05 11:09:31;;;;;;;0.80;0.77;;;;;;;3.75;92.67;100183.03;4972392;28;20178;-74
2023/03/05 11:12:20;;;;;;;1.00;0.33;;;;;;;3.79;93.06;100181.44;4972214;28;20216;-76
2023/03/05 11:15:08;;;;;;;1.37;0.73;;;;;;;3.84;92.35;100183.31;4972121;28;20642;-75
2023/03/05 11:17:43;;;;;;;0.73;0.50;;;;;;;3.80;91.99;100174.13;4972283;28;20185;-77
2023/03/05 11:20:26;;;;;;;0.40;0.40;;;;;;;3.78;91.63;100176.31;4972061;28;20268;-76
2023/03/05 11:23:02;;;;;;;0.10;0.10;;;;;;;3.69;90.80;100167.13;4971931;28;20293;-77
2023/03/05 11:25:28;;;;;;;0.73;0.30;;;;;;;3.64;91.03;100169.84;4971653;28;20680;-76